sensor_id;sensor_type;location;lat;lon;timestamp;temperature;humidity
5743;DHT22;2896;53.500;10.020;2023-08-20T00:01:33;18.60;99.90
5743;DHT22;2896;53.500;10.020;2023-08-20T00:04:00;18.50;99.90
5743;DHT22;2896;53.500;10.020;2023-08-20T00:06:28;18.50;1.00
5743;DHT22;2896;53.500;10.020;2023-08-20T00:08:56;18.50;1.00
5743;DHT22;2896;53.500;10.020;2023-08-20T00:11:22;18.50;1.00
5743;DHT22;2896;53.500;10.020;2023-08-20T00:13:49;18.40;1.00
5743;DHT22;2896;53.500;10.020;2023-08-20T00:16:16;18.40;1.00
5743;DHT22;2896;53.500;10.020;2023-08-20T00:18:43;18.30;1.00
5743;DHT22;2896;53.500;10.020;2023-08-20T00:21:10;18.30;1.00
5743;DHT22;2896;53.500;10.020;2023-08-20T00:23:37;18.30;99.90
5743;DHT22;2896;53.500;10.020;2023-08-20T00:26:06;18.20;99.90
5743;DHT22;2896;53.500;10.020;2023-08-20T00:28:33;18.20;1.00
5743;DHT22;2896;53.500;10.020;2023-08-20T00:30:59;18.20;1.00
5743;DHT22;2896;53.500;10.020;2023-08-20T00:33:26;18.10;1.00
5743;DHT22;2896;53.500;10.020;2023-08-20T00:35:53;18.10;1.00
5743;DHT22;2896;53.500;10.020;2023-08-20T00:38:20;18.10;99.90
5743;DHT22;2896;53.500;10.020;2023-08-20T00:40:46;18.10;99.90
5743;DHT22;2896;53.500;10.020;2023-08-20T00:43:14;18.00;99.90
5743;DHT22;2896;53.500;10.020;2023-08-20T00:45:41;17.90;99.90
5743;DHT22;2896;53.500;10.020;2023-08-20T00:48:09;17.90;99.90
5743;DHT22;2896;53.500;10.020;2023-08-20T00:50:35;17.80;99.90
5743;DHT22;2896;53.500;10.020;2023-08-20T00:53:02;17.80;1.00
5743;DHT22;2896;53.500;10.020;2023-08-20T00:55:29;17.80;1.00
5743;DHT22;2896;53.500;10.020;2023-08-20T00:57:56;17.70;99.90
5743;DHT22;2896;53.500;10.020;2023-08-20T01:00:24;17.60;1.00
5743;DHT22;2896;53.500;10.020;2023-08-20T01:02:51;17.60;1.00
5743;DHT22;2896;53.500;10.020;2023-08-20T01:05:18;17.60;1.00
5743;DHT22;2896;53.500;10.020;2023-08-20T01:07:58;17.50;96.40
5743;DHT22;2896;53.500;10.020;2023-08-20T01:10:34;17.40;99.90
5743;DHT22;2896;53.500;10.020;2023-08-20T01:13:06;17.40;99.90
5743;DHT22;2896;53.500;10.020;2023-08-20T01:15:35;17.40;1.00
5743;DHT22;2896;53.500;10.020;2023-08-20T01:18:01;17.30;99.90
5743;DHT22;2896;53.500;10.020;2023-08-20T01:20:31;17.30;99.90
5743;DHT22;2896;53.500;10.020;2023-08-20T01:23:21;17.20;1.00
5743;DHT22;2896;53.500;10.020;2023-08-20T01:26:06;17.20;99.90
5743;DHT22;2896;53.500;10.020;2023-08-20T01:28:36;17.10;99.90
5743;DHT22;2896;53.500;10.020;2023-08-20T01:31:05;17.10;99.90
5743;DHT22;2896;53.500;10.020;2023-08-20T01:33:32;17.10;1.00
5743;DHT22;2896;53.500;10.020;2023-08-20T01:35:59;17.00;96.10
5743;DHT22;2896;53.500;10.020;2023-08-20T01:38:26;17.00;96.40
5743;DHT22;2896;53.500;10.020;2023-08-20T01:40:53;17.00;99.90
5743;DHT22;2896;53.500;10.020;2023-08-20T01:43:19;16.90;99.90
5743;DHT22;2896;53.500;10.020;2023-08-20T01:45:47;16.90;1.00
5743;DHT22;2896;53.500;10.020;2023-08-20T01:48:14;16.80;1.00
5743;DHT22;2896;53.500;10.020;2023-08-20T01:50:40;16.80;99.90
5743;DHT22;2896;53.500;10.020;2023-08-20T01:53:07;19.20;1.00
5743;DHT22;2896;53.500;10.020;2023-08-20T01:55:35;16.70;1.00
5743;DHT22;2896;53.500;10.020;2023-08-20T01:58:02;16.70;1.00
5743;DHT22;2896;53.500;10.020;2023-08-20T02:00:28;16.70;99.90
5743;DHT22;2896;53.500;10.020;2023-08-20T02:02:57;16.60;1.00
5743;DHT22;2896;53.500;10.020;2023-08-20T02:05:26;16.50;1.00
5743;DHT22;2896;53.500;10.020;2023-08-20T02:07:53;16.50;99.90
5743;DHT22;2896;53.500;10.020;2023-08-20T02:10:20;16.50;1.00
5743;DHT22;2896;53.500;10.020;2023-08-20T02:12:47;16.40;1.00
5743;DHT22;2896;53.500;10.020;2023-08-20T02:15:14;16.40;1.00
5743;DHT22;2896;53.500;10.020;2023-08-20T02:17:41;16.40;1.00
5743;DHT22;2896;53.500;10.020;2023-08-20T02:20:09;16.30;1.00
5743;DHT22;2896;53.500;10.020;2023-08-20T02:22:36;16.30;1.00
5743;DHT22;2896;53.500;10.020;2023-08-20T02:25:03;16.30;99.90
5743;DHT22;2896;53.500;10.020;2023-08-20T02:27:30;16.20;50.10
5743;DHT22;2896;53.500;10.020;2023-08-20T02:29:57;16.20;99.90
5743;DHT22;2896;53.500;10.020;2023-08-20T02:32:23;16.20;99.90
5743;DHT22;2896;53.500;10.020;2023-08-20T02:34:50;16.10;99.90
5743;DHT22;2896;53.500;10.020;2023-08-20T02:37:19;16.10;99.90
5743;DHT22;2896;53.500;10.020;2023-08-20T02:39:45;16.10;99.90
5743;DHT22;2896;53.500;10.020;2023-08-20T02:42:12;16.00;99.90
5743;DHT22;2896;53.500;10.020;2023-08-20T02:44:38;16.00;1.00
5743;DHT22;2896;53.500;10.020;2023-08-20T02:47:05;16.00;99.90
5743;DHT22;2896;53.500;10.020;2023-08-20T02:49:32;15.90;99.90
5743;DHT22;2896;53.500;10.020;2023-08-20T02:51:59;15.90;1.00
5743;DHT22;2896;53.500;10.020;2023-08-20T02:54:26;15.80;99.90
5743;DHT22;2896;53.500;10.020;2023-08-20T02:56:54;15.80;99.90
5743;DHT22;2896;53.500;10.020;2023-08-20T02:59:21;15.80;99.90
5743;DHT22;2896;53.500;10.020;2023-08-20T03:01:47;15.80;1.00
5743;DHT22;2896;53.500;10.020;2023-08-20T03:04:14;15.70;99.90
5743;DHT22;2896;53.500;10.020;2023-08-20T03:06:40;15.70;1.00
5743;DHT22;2896;53.500;10.020;2023-08-20T03:09:07;15.70;1.00
5743;DHT22;2896;53.500;10.020;2023-08-20T03:11:36;15.70;1.00
5743;DHT22;2896;53.500;10.020;2023-08-20T03:14:03;15.70;48.90
5743;DHT22;2896;53.500;10.020;2023-08-20T03:16:29;15.60;99.90
5743;DHT22;2896;53.500;10.020;2023-08-20T03:18:56;15.60;99.90
5743;DHT22;2896;53.500;10.020;2023-08-20T03:21:22;15.60;99.90
5743;DHT22;2896;53.500;10.020;2023-08-20T03:23:49;15.60;1.00
5743;DHT22;2896;53.500;10.020;2023-08-20T03:26:16;15.50;1.00
5743;DHT22;2896;53.500;10.020;2023-08-20T03:28:44;15.50;1.00
5743;DHT22;2896;53.500;10.020;2023-08-20T03:31:10;15.50;1.00
5743;DHT22;2896;53.500;10.020;2023-08-20T03:33:37;15.50;1.00
5743;DHT22;2896;53.500;10.020;2023-08-20T03:36:04;15.40;1.00
5743;DHT22;2896;53.500;10.020;2023-08-20T03:38:30;15.40;1.00
5743;DHT22;2896;53.500;10.020;2023-08-20T03:40:57;15.40;1.00
5743;DHT22;2896;53.500;10.020;2023-08-20T03:43:24;15.40;1.00
5743;DHT22;2896;53.500;10.020;2023-08-20T03:45:52;15.40;99.90
5743;DHT22;2896;53.500;10.020;2023-08-20T03:48:18;15.40;99.90
5743;DHT22;2896;53.500;10.020;2023-08-20T03:50:46;15.30;99.90
5743;DHT22;2896;53.500;10.020;2023-08-20T03:53:13;15.30;99.90
5743;DHT22;2896;53.500;10.020;2023-08-20T03:55:39;15.30;99.90
5743;DHT22;2896;53.500;10.020;2023-08-20T03:58:07;15.30;99.90
5743;DHT22;2896;53.500;10.020;2023-08-20T04:00:34;15.20;99.90
5743;DHT22;2896;53.500;10.020;2023-08-20T04:03:03;15.20;99.90
5743;DHT22;2896;53.500;10.020;2023-08-20T04:05:29;15.20;99.90
5743;DHT22;2896;53.500;10.020;2023-08-20T04:07:56;15.20;99.90
5743;DHT22;2896;53.500;10.020;2023-08-20T04:10:22;15.10;99.90
5743;DHT22;2896;53.500;10.020;2023-08-20T04:12:49;15.10;99.90
5743;DHT22;2896;53.500;10.020;2023-08-20T04:15:16;15.10;99.90
5743;DHT22;2896;53.500;10.020;2023-08-20T04:17:42;15.10;99.90
5743;DHT22;2896;53.500;10.020;2023-08-20T04:20:10;15.10;99.90
5743;DHT22;2896;53.500;10.020;2023-08-20T04:22:37;15.10;99.90
5743;DHT22;2896;53.500;10.020;2023-08-20T04:25:05;15.00;99.90
5743;DHT22;2896;53.500;10.020;2023-08-20T04:27:32;15.10;99.90
5743;DHT22;2896;53.500;10.020;2023-08-20T04:29:58;15.10;99.90
5743;DHT22;2896;53.500;10.020;2023-08-20T04:32:25;15.10;99.90
5743;DHT22;2896;53.500;10.020;2023-08-20T04:34:52;15.00;99.90
5743;DHT22;2896;53.500;10.020;2023-08-20T04:37:21;15.00;99.90
5743;DHT22;2896;53.500;10.020;2023-08-20T04:39:47;15.00;99.90
5743;DHT22;2896;53.500;10.020;2023-08-20T04:42:14;15.10;99.90
5743;DHT22;2896;53.500;10.020;2023-08-20T04:44:41;15.10;99.90
5743;DHT22;2896;53.500;10.020;2023-08-20T04:47:11;15.10;99.90
5743;DHT22;2896;53.500;10.020;2023-08-20T04:49:37;15.20;99.90
5743;DHT22;2896;53.500;10.020;2023-08-20T04:52:04;15.20;99.90
5743;DHT22;2896;53.500;10.020;2023-08-20T04:54:32;15.20;99.90
5743;DHT22;2896;53.500;10.020;2023-08-20T04:56:58;15.20;99.90
5743;DHT22;2896;53.500;10.020;2023-08-20T04:59:25;15.20;99.90
5743;DHT22;2896;53.500;10.020;2023-08-20T05:01:52;15.20;99.90
5743;DHT22;2896;53.500;10.020;2023-08-20T05:04:19;15.20;99.90
5743;DHT22;2896;53.500;10.020;2023-08-20T05:06:45;15.30;99.90
5743;DHT22;2896;53.500;10.020;2023-08-20T05:09:12;15.30;99.90
5743;DHT22;2896;53.500;10.020;2023-08-20T05:11:40;15.40;99.90
5743;DHT22;2896;53.500;10.020;2023-08-20T05:14:06;15.40;99.90
5743;DHT22;2896;53.500;10.020;2023-08-20T05:16:33;15.50;99.90
5743;DHT22;2896;53.500;10.020;2023-08-20T05:19:00;15.50;99.90
5743;DHT22;2896;53.500;10.020;2023-08-20T05:21:26;15.60;99.90
5743;DHT22;2896;53.500;10.020;2023-08-20T05:23:53;15.60;99.90
5743;DHT22;2896;53.500;10.020;2023-08-20T05:26:21;15.70;99.90
5743;DHT22;2896;53.500;10.020;2023-08-20T05:28:49;15.70;99.90
5743;DHT22;2896;53.500;10.020;2023-08-20T05:31:16;15.80;99.90
5743;DHT22;2896;53.500;10.020;2023-08-20T05:33:43;16.00;99.90
5743;DHT22;2896;53.500;10.020;2023-08-20T05:36:09;16.30;99.90
5743;DHT22;2896;53.500;10.020;2023-08-20T05:38:36;16.50;99.90
5743;DHT22;2896;53.500;10.020;2023-08-20T05:41:02;16.40;99.90
5743;DHT22;2896;53.500;10.020;2023-08-20T05:43:29;16.50;99.90
5743;DHT22;2896;53.500;10.020;2023-08-20T05:45:57;16.50;99.90
5743;DHT22;2896;53.500;10.020;2023-08-20T05:48:23;16.50;99.90
5743;DHT22;2896;53.500;10.020;2023-08-20T05:50:50;16.60;99.90
5743;DHT22;2896;53.500;10.020;2023-08-20T05:53:16;16.70;99.90
5743;DHT22;2896;53.500;10.020;2023-08-20T05:55:43;16.70;99.90
5743;DHT22;2896;53.500;10.020;2023-08-20T05:58:10;16.80;99.90
5743;DHT22;2896;53.500;10.020;2023-08-20T06:00:36;16.90;99.90
5743;DHT22;2896;53.500;10.020;2023-08-20T06:03:05;17.00;99.90
5743;DHT22;2896;53.500;10.020;2023-08-20T06:05:32;17.00;99.90
5743;DHT22;2896;53.500;10.020;2023-08-20T06:07:59;17.10;99.90
5743;DHT22;2896;53.500;10.020;2023-08-20T06:10:26;17.10;99.90
5743;DHT22;2896;53.500;10.020;2023-08-20T06:12:52;17.20;99.90
5743;DHT22;2896;53.500;10.020;2023-08-20T06:15:19;17.20;99.90
5743;DHT22;2896;53.500;10.020;2023-08-20T06:17:46;17.30;99.90
5743;DHT22;2896;53.500;10.020;2023-08-20T06:20:14;17.40;99.90
5743;DHT22;2896;53.500;10.020;2023-08-20T06:22:40;17.50;99.90
5743;DHT22;2896;53.500;10.020;2023-08-20T06:25:07;17.60;99.90
5743;DHT22;2896;53.500;10.020;2023-08-20T06:27:34;17.70;99.90
5743;DHT22;2896;53.500;10.020;2023-08-20T06:30:01;17.70;99.90
5743;DHT22;2896;53.500;10.020;2023-08-20T06:32:27;17.80;99.90
5743;DHT22;2896;53.500;10.020;2023-08-20T06:34:54;17.80;99.90
5743;DHT22;2896;53.500;10.020;2023-08-20T06:37:22;17.90;99.90
5743;DHT22;2896;53.500;10.020;2023-08-20T06:39:48;18.00;99.90
5743;DHT22;2896;53.500;10.020;2023-08-20T06:42:15;18.10;99.90
5743;DHT22;2896;53.500;10.020;2023-08-20T06:44:42;18.20;99.90
5743;DHT22;2896;53.500;10.020;2023-08-20T06:47:08;18.30;99.90
5743;DHT22;2896;53.500;10.020;2023-08-20T06:49:35;18.40;99.90
5743;DHT22;2896;53.500;10.020;2023-08-20T06:52:01;18.40;99.90
5743;DHT22;2896;53.500;10.020;2023-08-20T06:54:29;18.40;99.90
5743;DHT22;2896;53.500;10.020;2023-08-20T06:56:56;18.50;99.90
5743;DHT22;2896;53.500;10.020;2023-08-20T06:59:23;18.70;99.90
5743;DHT22;2896;53.500;10.020;2023-08-20T07:01:49;18.80;99.90
5743;DHT22;2896;53.500;10.020;2023-08-20T07:04:16;19.00;99.90
5743;DHT22;2896;53.500;10.020;2023-08-20T07:06:43;19.10;99.90
5743;DHT22;2896;53.500;10.020;2023-08-20T07:09:09;19.10;99.90
5743;DHT22;2896;53.500;10.020;2023-08-20T07:11:37;19.20;99.90
5743;DHT22;2896;53.500;10.020;2023-08-20T07:14:04;19.40;99.90
5743;DHT22;2896;53.500;10.020;2023-08-20T07:16:31;19.40;99.90
5743;DHT22;2896;53.500;10.020;2023-08-20T07:18:57;19.70;99.90
5743;DHT22;2896;53.500;10.020;2023-08-20T07:21:24;20.10;99.90
5743;DHT22;2896;53.500;10.020;2023-08-20T07:23:50;21.70;99.90
5743;DHT22;2896;53.500;10.020;2023-08-20T07:26:17;20.50;1.00
5743;DHT22;2896;53.500;10.020;2023-08-20T07:28:45;20.40;48.30
5743;DHT22;2896;53.500;10.020;2023-08-20T07:31:24;20.70;31.70
5743;DHT22;2896;53.500;10.020;2023-08-20T07:33:52;20.80;1.00
5743;DHT22;2896;53.500;10.020;2023-08-20T07:36:20;20.90;1.00
5743;DHT22;2896;53.500;10.020;2023-08-20T07:38:48;21.00;1.00
5743;DHT22;2896;53.500;10.020;2023-08-20T07:41:16;20.80;99.90
5743;DHT22;2896;53.500;10.020;2023-08-20T07:43:44;20.90;99.90
5743;DHT22;2896;53.500;10.020;2023-08-20T07:46:11;21.10;99.90
5743;DHT22;2896;53.500;10.020;2023-08-20T07:48:39;21.20;99.90
5743;DHT22;2896;53.500;10.020;2023-08-20T07:51:05;21.30;99.90
5743;DHT22;2896;53.500;10.020;2023-08-20T07:53:33;21.10;57.30
5743;DHT22;2896;53.500;10.020;2023-08-20T07:56:00;21.30;82.70
5743;DHT22;2896;53.500;10.020;2023-08-20T07:58:27;21.40;62.60
5743;DHT22;2896;53.500;10.020;2023-08-20T08:00:56;21.40;1.00
5743;DHT22;2896;53.500;10.020;2023-08-20T08:03:24;21.60;1.00
5743;DHT22;2896;53.500;10.020;2023-08-20T08:05:51;21.70;1.00
5743;DHT22;2896;53.500;10.020;2023-08-20T08:08:20;21.90;1.00
5743;DHT22;2896;53.500;10.020;2023-08-20T08:10:47;22.00;1.00
5743;DHT22;2896;53.500;10.020;2023-08-20T08:13:17;22.00;1.00
5743;DHT22;2896;53.500;10.020;2023-08-20T08:15:44;22.30;1.00
5743;DHT22;2896;53.500;10.020;2023-08-20T08:18:12;22.40;1.00
5743;DHT22;2896;53.500;10.020;2023-08-20T08:20:38;22.30;1.00
5743;DHT22;2896;53.500;10.020;2023-08-20T08:23:06;22.60;1.00
5743;DHT22;2896;53.500;10.020;2023-08-20T08:25:32;22.80;1.00
5743;DHT22;2896;53.500;10.020;2023-08-20T08:27:59;22.60;1.00
5743;DHT22;2896;53.500;10.020;2023-08-20T08:30:26;22.80;1.00
5743;DHT22;2896;53.500;10.020;2023-08-20T08:32:52;23.00;1.00
5743;DHT22;2896;53.500;10.020;2023-08-20T08:35:20;23.20;1.00
5743;DHT22;2896;53.500;10.020;2023-08-20T08:37:47;23.20;1.00
5743;DHT22;2896;53.500;10.020;2023-08-20T08:40:14;23.20;1.00
5743;DHT22;2896;53.500;10.020;2023-08-20T08:42:41;23.40;1.00
5743;DHT22;2896;53.500;10.020;2023-08-20T08:45:09;23.70;1.00
5743;DHT22;2896;53.500;10.020;2023-08-20T08:47:39;23.80;99.90
5743;DHT22;2896;53.500;10.020;2023-08-20T08:50:07;24.00;99.90
5743;DHT22;2896;53.500;10.020;2023-08-20T08:52:37;23.90;99.90
5743;DHT22;2896;53.500;10.020;2023-08-20T08:55:06;24.00;99.90
5743;DHT22;2896;53.500;10.020;2023-08-20T08:57:33;23.90;99.90
5743;DHT22;2896;53.500;10.020;2023-08-20T09:00:00;23.90;99.90
5743;DHT22;2896;53.500;10.020;2023-08-20T09:02:27;24.10;99.90
5743;DHT22;2896;53.500;10.020;2023-08-20T09:04:53;24.90;99.90
5743;DHT22;2896;53.500;10.020;2023-08-20T09:07:20;24.30;99.90
5743;DHT22;2896;53.500;10.020;2023-08-20T09:09:48;24.30;99.90
5743;DHT22;2896;53.500;10.020;2023-08-20T09:12:15;22.80;99.90
5743;DHT22;2896;53.500;10.020;2023-08-20T09:14:45;24.20;99.90
5743;DHT22;2896;53.500;10.020;2023-08-20T09:17:13;24.50;99.90
5743;DHT22;2896;53.500;10.020;2023-08-20T09:19:42;24.50;99.90
5743;DHT22;2896;53.500;10.020;2023-08-20T09:22:10;24.60;99.90
5743;DHT22;2896;53.500;10.020;2023-08-20T09:24:39;24.70;99.90
5743;DHT22;2896;53.500;10.020;2023-08-20T09:27:09;24.70;99.90
5743;DHT22;2896;53.500;10.020;2023-08-20T09:29:44;24.80;99.90
5743;DHT22;2896;53.500;10.020;2023-08-20T09:32:14;25.10;99.90
5743;DHT22;2896;53.500;10.020;2023-08-20T09:34:40;25.30;99.90
5743;DHT22;2896;53.500;10.020;2023-08-20T09:37:11;25.40;99.90
5743;DHT22;2896;53.500;10.020;2023-08-20T09:39:39;25.40;99.90
5743;DHT22;2896;53.500;10.020;2023-08-20T09:42:06;25.40;99.90
5743;DHT22;2896;53.500;10.020;2023-08-20T09:44:35;25.60;99.90
5743;DHT22;2896;53.500;10.020;2023-08-20T09:47:06;25.90;99.90
5743;DHT22;2896;53.500;10.020;2023-08-20T09:49:36;26.00;99.90
5743;DHT22;2896;53.500;10.020;2023-08-20T09:52:05;26.00;99.90
5743;DHT22;2896;53.500;10.020;2023-08-20T09:54:38;26.10;99.90
5743;DHT22;2896;53.500;10.020;2023-08-20T09:57:12;26.30;99.90
5743;DHT22;2896;53.500;10.020;2023-08-20T09:59:41;26.40;99.90
5743;DHT22;2896;53.500;10.020;2023-08-20T10:02:10;26.60;99.90
5743;DHT22;2896;53.500;10.020;2023-08-20T10:04:38;26.80;99.90
5743;DHT22;2896;53.500;10.020;2023-08-20T10:07:05;26.60;99.90
5743;DHT22;2896;53.500;10.020;2023-08-20T10:09:32;26.50;99.90
5743;DHT22;2896;53.500;10.020;2023-08-20T10:12:00;26.60;99.90
5743;DHT22;2896;53.500;10.020;2023-08-20T10:14:27;26.70;99.90
5743;DHT22;2896;53.500;10.020;2023-08-20T10:16:56;27.00;99.90
5743;DHT22;2896;53.500;10.020;2023-08-20T10:19:23;26.90;99.90
5743;DHT22;2896;53.500;10.020;2023-08-20T10:21:52;27.10;99.90
5743;DHT22;2896;53.500;10.020;2023-08-20T10:24:19;27.30;99.90
5743;DHT22;2896;53.500;10.020;2023-08-20T10:26:46;27.30;99.90
5743;DHT22;2896;53.500;10.020;2023-08-20T10:29:36;27.60;99.90
5743;DHT22;2896;53.500;10.020;2023-08-20T10:32:05;27.70;99.90
5743;DHT22;2896;53.500;10.020;2023-08-20T10:34:33;27.90;99.90
5743;DHT22;2896;53.500;10.020;2023-08-20T10:37:02;27.90;99.90
5743;DHT22;2896;53.500;10.020;2023-08-20T10:39:29;27.90;99.90
5743;DHT22;2896;53.500;10.020;2023-08-20T10:42:09;27.50;99.90
5743;DHT22;2896;53.500;10.020;2023-08-20T10:45:07;27.90;99.90
5743;DHT22;2896;53.500;10.020;2023-08-20T10:47:41;28.20;99.90
5743;DHT22;2896;53.500;10.020;2023-08-20T10:50:09;28.40;99.90
5743;DHT22;2896;53.500;10.020;2023-08-20T10:52:38;28.60;99.90
5743;DHT22;2896;53.500;10.020;2023-08-20T10:55:06;28.80;99.90
5743;DHT22;2896;53.500;10.020;2023-08-20T10:57:34;28.60;99.90
5743;DHT22;2896;53.500;10.020;2023-08-20T11:00:03;28.30;99.90
5743;DHT22;2896;53.500;10.020;2023-08-20T11:02:35;28.20;99.90
5743;DHT22;2896;53.500;10.020;2023-08-20T11:05:09;28.40;99.90
5743;DHT22;2896;53.500;10.020;2023-08-20T11:07:43;28.80;99.90
5743;DHT22;2896;53.500;10.020;2023-08-20T11:10:13;29.10;99.90
5743;DHT22;2896;53.500;10.020;2023-08-20T11:12:39;28.90;99.90
5743;DHT22;2896;53.500;10.020;2023-08-20T11:15:08;28.60;99.90
5743;DHT22;2896;53.500;10.020;2023-08-20T11:17:35;28.50;99.90
5743;DHT22;2896;53.500;10.020;2023-08-20T11:20:08;28.30;99.90
5743;DHT22;2896;53.500;10.020;2023-08-20T11:22:35;28.60;99.90
5743;DHT22;2896;53.500;10.020;2023-08-20T11:25:02;28.90;99.90
5743;DHT22;2896;53.500;10.020;2023-08-20T11:27:30;28.70;99.90
5743;DHT22;2896;53.500;10.020;2023-08-20T11:29:57;28.60;99.90
5743;DHT22;2896;53.500;10.020;2023-08-20T11:32:24;29.00;99.90
5743;DHT22;2896;53.500;10.020;2023-08-20T11:34:52;29.20;99.90
5743;DHT22;2896;53.500;10.020;2023-08-20T11:37:20;29.40;99.90
5743;DHT22;2896;53.500;10.020;2023-08-20T11:39:47;29.80;99.90
5743;DHT22;2896;53.500;10.020;2023-08-20T11:42:14;30.00;99.90
5743;DHT22;2896;53.500;10.020;2023-08-20T11:44:46;30.20;99.90
5743;DHT22;2896;53.500;10.020;2023-08-20T11:47:16;30.10;99.90
5743;DHT22;2896;53.500;10.020;2023-08-20T11:49:43;29.70;99.90
5743;DHT22;2896;53.500;10.020;2023-08-20T11:52:10;30.00;99.90
5743;DHT22;2896;53.500;10.020;2023-08-20T11:54:39;29.70;99.90
5743;DHT22;2896;53.500;10.020;2023-08-20T11:57:08;29.70;99.90
5743;DHT22;2896;53.500;10.020;2023-08-20T11:59:34;29.50;99.90
5743;DHT22;2896;53.500;10.020;2023-08-20T12:02:03;29.50;99.90
5743;DHT22;2896;53.500;10.020;2023-08-20T12:04:31;29.60;99.90
5743;DHT22;2896;53.500;10.020;2023-08-20T12:07:05;29.20;99.90
5743;DHT22;2896;53.500;10.020;2023-08-20T12:09:32;28.90;99.90
5743;DHT22;2896;53.500;10.020;2023-08-20T12:12:02;28.50;99.90
5743;DHT22;2896;53.500;10.020;2023-08-20T12:14:29;28.50;99.90
5743;DHT22;2896;53.500;10.020;2023-08-20T12:16:56;28.50;99.90
5743;DHT22;2896;53.500;10.020;2023-08-20T12:19:23;28.30;99.90
5743;DHT22;2896;53.500;10.020;2023-08-20T12:21:50;28.70;99.90
5743;DHT22;2896;53.500;10.020;2023-08-20T12:24:17;29.30;99.90
5743;DHT22;2896;53.500;10.020;2023-08-20T12:26:44;29.70;99.90
5743;DHT22;2896;53.500;10.020;2023-08-20T12:29:12;29.50;99.90
5743;DHT22;2896;53.500;10.020;2023-08-20T12:31:40;29.30;99.90
5743;DHT22;2896;53.500;10.020;2023-08-20T12:34:07;29.80;99.90
5743;DHT22;2896;53.500;10.020;2023-08-20T12:36:34;30.10;99.90
5743;DHT22;2896;53.500;10.020;2023-08-20T12:39:01;29.90;99.90
5743;DHT22;2896;53.500;10.020;2023-08-20T12:41:28;29.60;99.90
5743;DHT22;2896;53.500;10.020;2023-08-20T12:43:55;29.70;99.90
5743;DHT22;2896;53.500;10.020;2023-08-20T12:46:24;29.40;99.90
5743;DHT22;2896;53.500;10.020;2023-08-20T12:48:50;29.50;99.90
5743;DHT22;2896;53.500;10.020;2023-08-20T12:51:17;29.80;99.90
5743;DHT22;2896;53.500;10.020;2023-08-20T12:53:44;29.40;99.90
5743;DHT22;2896;53.500;10.020;2023-08-20T12:56:11;28.90;99.90
5743;DHT22;2896;53.500;10.020;2023-08-20T12:58:38;28.90;99.90
5743;DHT22;2896;53.500;10.020;2023-08-20T13:01:05;28.60;99.90
5743;DHT22;2896;53.500;10.020;2023-08-20T13:03:33;28.10;99.90
5743;DHT22;2896;53.500;10.020;2023-08-20T13:06:01;27.80;99.90
5743;DHT22;2896;53.500;10.020;2023-08-20T13:08:28;28.00;99.90
5743;DHT22;2896;53.500;10.020;2023-08-20T13:10:57;28.30;99.90
5743;DHT22;2896;53.500;10.020;2023-08-20T13:13:24;28.60;99.90
5743;DHT22;2896;53.500;10.020;2023-08-20T13:15:52;28.40;99.90
5743;DHT22;2896;53.500;10.020;2023-08-20T13:18:20;28.50;99.90
5743;DHT22;2896;53.500;10.020;2023-08-20T13:20:51;28.70;99.90
5743;DHT22;2896;53.500;10.020;2023-08-20T13:23:18;28.80;99.90
5743;DHT22;2896;53.500;10.020;2023-08-20T13:25:44;29.40;99.90
5743;DHT22;2896;53.500;10.020;2023-08-20T13:28:11;29.80;99.90
5743;DHT22;2896;53.500;10.020;2023-08-20T13:30:38;29.60;99.90
5743;DHT22;2896;53.500;10.020;2023-08-20T13:33:05;29.60;99.90
5743;DHT22;2896;53.500;10.020;2023-08-20T13:35:32;29.90;99.90
5743;DHT22;2896;53.500;10.020;2023-08-20T13:38:00;29.70;99.90
5743;DHT22;2896;53.500;10.020;2023-08-20T13:40:27;29.60;99.90
5743;DHT22;2896;53.500;10.020;2023-08-20T13:42:54;29.70;99.90
5743;DHT22;2896;53.500;10.020;2023-08-20T13:45:21;30.50;99.90
5743;DHT22;2896;53.500;10.020;2023-08-20T13:47:47;31.00;99.90
5743;DHT22;2896;53.500;10.020;2023-08-20T13:50:14;31.30;99.90
5743;DHT22;2896;53.500;10.020;2023-08-20T13:52:41;31.40;99.90
5743;DHT22;2896;53.500;10.020;2023-08-20T13:55:09;30.80;99.90
5743;DHT22;2896;53.500;10.020;2023-08-20T13:57:36;30.70;99.90
5743;DHT22;2896;53.500;10.020;2023-08-20T14:00:04;30.80;99.90
5743;DHT22;2896;53.500;10.020;2023-08-20T14:02:34;30.80;99.90
5743;DHT22;2896;53.500;10.020;2023-08-20T14:05:01;31.10;99.90
5743;DHT22;2896;53.500;10.020;2023-08-20T14:07:29;31.40;99.90
5743;DHT22;2896;53.500;10.020;2023-08-20T14:09:56;31.60;99.90
5743;DHT22;2896;53.500;10.020;2023-08-20T14:12:24;31.70;99.90
5743;DHT22;2896;53.500;10.020;2023-08-20T14:14:50;31.40;99.90
5743;DHT22;2896;53.500;10.020;2023-08-20T14:17:17;31.70;99.90
5743;DHT22;2896;53.500;10.020;2023-08-20T14:19:44;31.40;99.90
5743;DHT22;2896;53.500;10.020;2023-08-20T14:22:10;31.70;99.90
5743;DHT22;2896;53.500;10.020;2023-08-20T14:24:37;32.00;99.90
5743;DHT22;2896;53.500;10.020;2023-08-20T14:27:04;31.70;99.90
5743;DHT22;2896;53.500;10.020;2023-08-20T14:29:34;31.90;99.90
5743;DHT22;2896;53.500;10.020;2023-08-20T14:32:00;31.70;99.90
5743;DHT22;2896;53.500;10.020;2023-08-20T14:34:28;31.60;99.90
5743;DHT22;2896;53.500;10.020;2023-08-20T14:36:56;30.90;99.90
5743;DHT22;2896;53.500;10.020;2023-08-20T14:39:22;31.40;99.90
5743;DHT22;2896;53.500;10.020;2023-08-20T14:41:49;31.30;99.90
5743;DHT22;2896;53.500;10.020;2023-08-20T14:44:16;31.60;99.90
5743;DHT22;2896;53.500;10.020;2023-08-20T14:46:45;31.70;99.90
5743;DHT22;2896;53.500;10.020;2023-08-20T14:49:11;31.60;99.90
5743;DHT22;2896;53.500;10.020;2023-08-20T14:51:39;31.10;99.90
5743;DHT22;2896;53.500;10.020;2023-08-20T14:54:05;31.20;99.90
5743;DHT22;2896;53.500;10.020;2023-08-20T14:56:32;31.30;99.90
5743;DHT22;2896;53.500;10.020;2023-08-20T14:58:59;31.70;99.90
5743;DHT22;2896;53.500;10.020;2023-08-20T15:01:25;31.60;99.90
5743;DHT22;2896;53.500;10.020;2023-08-20T15:03:53;31.60;99.90
5743;DHT22;2896;53.500;10.020;2023-08-20T15:06:20;31.80;99.90
5743;DHT22;2896;53.500;10.020;2023-08-20T15:08:49;31.60;99.90
5743;DHT22;2896;53.500;10.020;2023-08-20T15:11:16;31.10;99.90
5743;DHT22;2896;53.500;10.020;2023-08-20T15:13:42;31.20;99.90
5743;DHT22;2896;53.500;10.020;2023-08-20T15:16:09;30.50;99.90
5743;DHT22;2896;53.500;10.020;2023-08-20T15:18:35;30.70;99.90
5743;DHT22;2896;53.500;10.020;2023-08-20T15:21:03;31.00;99.90
5743;DHT22;2896;53.500;10.020;2023-08-20T15:23:30;31.00;99.90
5743;DHT22;2896;53.500;10.020;2023-08-20T15:25:57;30.80;99.90
5743;DHT22;2896;53.500;10.020;2023-08-20T15:28:25;30.40;99.90
5743;DHT22;2896;53.500;10.020;2023-08-20T15:30:53;30.40;99.90
5743;DHT22;2896;53.500;10.020;2023-08-20T15:33:20;30.20;99.90
5743;DHT22;2896;53.500;10.020;2023-08-20T15:35:47;30.30;99.90
5743;DHT22;2896;53.500;10.020;2023-08-20T15:38:15;30.40;99.90
5743;DHT22;2896;53.500;10.020;2023-08-20T15:40:41;30.40;99.90
5743;DHT22;2896;53.500;10.020;2023-08-20T15:43:08;30.20;99.90
5743;DHT22;2896;53.500;10.020;2023-08-20T15:45:35;30.40;99.90
5743;DHT22;2896;53.500;10.020;2023-08-20T15:48:01;30.50;99.90
5743;DHT22;2896;53.500;10.020;2023-08-20T15:50:28;30.50;99.90
5743;DHT22;2896;53.500;10.020;2023-08-20T15:52:55;30.40;99.90